Time;durP1;ratioP1;P1;durP2;ratioP2;P2;SDS_P1;SDS_P2;PMS_P1;PMS_P2;Temp;Humidity;BMP_temperature;BMP_pressure;BME280_temperature;BME280_humidity;BME280_pressure;Samples;Min_cycle;Max_cycle;Signal;HPM_P1;HPM_P2
2023/08/08 00:01:53;;;;;;;5.87;1.50;;;;;;;19.27;100.00;96337.38;5072103;28;20036;-83
2023/08/08 00:04:27;;;;;;;3.77;1.40;;;;;;;19.05;100.00;96329.69;5071874;28;20024;-83
2023/08/08 00:06:52;;;;;;;6.73;2.67;;;;;;;19.39;100.00;96334.88;5065707;28;20027;-83
2023/08/08 00:09:18;;;;;;;4.53;2.00;;;;;;;18.82;100.00;96326.66;5071176;28;20056;-82
2023/08/08 00:11:43;;;;;;;4.93;1.73;;;;;;;19.13;100.00;96325.13;5054611;28;20024;-84
2023/08/08 00:14:09;;;;;;;2.70;1.70;;;;;;;19.21;100.00;96322.22;5055178;28;20041;-83
2023/08/08 00:16:34;;;;;;;2.50;1.20;;;;;;;18.93;100.00;96325.19;5060146;28;20107;-83
2023/08/08 00:19:01;;;;;;;3.73;1.50;;;;;;;19.07;100.00;96318.78;5062950;28;20032;-82
2023/08/08 00:21:26;;;;;;;2.77;1.60;;;;;;;18.77;100.00;96315.81;5073098;28;20064;-83
2023/08/08 00:23:52;;;;;;;5.37;1.80;;;;;;;18.92;100.00;96319.06;5054565;28;20528;-83
2023/08/08 00:26:18;;;;;;;3.97;1.50;;;;;;;18.79;100.00;96319.09;5071720;28;20584;-83
2023/08/08 00:28:43;;;;;;;3.30;1.70;;;;;;;18.29;100.00;96311.53;5071775;28;20024;-83
2023/08/08 00:31:09;;;;;;;4.13;2.07;;;;;;;18.34;100.00;96311.75;5071869;28;20617;-83
2023/08/08 00:33:34;;;;;;;6.00;1.90;;;;;;;18.68;100.00;96317.84;5043948;28;20020;-83
2023/08/08 00:36:00;;;;;;;3.43;1.70;;;;;;;18.42;100.00;96320.56;5056581;28;20025;-83
2023/08/08 00:38:26;;;;;;;3.27;1.73;;;;;;;18.53;100.00;96322.59;5072582;28;20028;-83
2023/08/08 00:40:52;;;;;;;2.40;1.40;;;;;;;18.47;100.00;96326.06;5054462;28;20025;-83
2023/08/08 00:43:17;;;;;;;4.37;1.90;;;;;;;18.50;100.00;96320.31;5054578;28;20035;-83
2023/08/08 00:45:44;;;;;;;4.90;1.70;;;;;;;18.17;100.00;96323.00;5054807;28;20454;-83
2023/08/08 00:48:11;;;;;;;3.23;1.60;;;;;;;18.23;100.00;96324.84;5066409;28;20028;-83
2023/08/08 00:50:37;;;;;;;3.97;2.00;;;;;;;18.35;100.00;96325.88;5071300;28;20040;-83
2023/08/08 00:53:04;;;;;;;4.87;1.97;;;;;;;18.38;100.00;96323.63;5067639;28;20634;-83
2023/08/08 00:55:33;;;;;;;6.30;1.80;;;;;;;18.01;100.00;96316.25;5071199;28;20031;-83
2023/08/08 00:57:59;;;;;;;4.73;1.70;;;;;;;18.26;100.00;96311.13;5067928;28;20033;-83
2023/08/08 01:00:25;;;;;;;3.57;1.70;;;;;;;18.08;100.00;96315.22;5052311;28;20028;-82
2023/08/08 01:02:50;;;;;;;4.10;2.07;;;;;;;18.16;100.00;96308.06;5070176;28;20032;-83
2023/08/08 01:05:16;;;;;;;4.50;1.30;;;;;;;18.03;100.00;96303.56;5075173;28;20031;-83
2023/08/08 01:07:54;;;;;;;4.33;1.77;;;;;;;18.19;100.00;96305.00;5068454;28;20028;-83
2023/08/08 01:10:28;;;;;;;3.17;1.67;;;;;;;17.95;100.00;96303.78;5053406;28;20040;-82
2023/08/08 01:12:57;;;;;;;;;;;;;;;18.07;100.00;96302.94;5049225;28;20035;-82
2023/08/08 01:15:23;;;;;;;2.93;1.47;;;;;;;18.31;100.00;96298.03;5053715;28;20023;-83
2023/08/08 01:17:50;;;;;;;3.03;1.57;;;;;;;18.14;100.00;96300.28;5050609;28;20677;-83
2023/08/08 01:20:17;;;;;;;4.57;1.83;;;;;;;18.03;100.00;96291.06;5071466;28;20043;-83
2023/08/08 01:22:56;;;;;;;3.43;1.50;;;;;;;18.28;100.00;96291.28;5065299;28;20029;-83
2023/08/08 01:25:22;;;;;;;5.03;1.77;;;;;;;18.49;100.00;96294.72;5053818;28;20019;-83
2023/08/08 01:27:48;;;;;;;3.83;1.53;;;;;;;18.86;100.00;96305.75;5071033;28;20020;-83
2023/08/08 01:30:14;;;;;;;2.70;1.50;;;;;;;18.50;100.00;96299.03;5062482;28;20071;-83
2023/08/08 01:32:40;;;;;;;4.63;1.77;;;;;;;18.68;100.00;96296.53;5052072;28;20035;-85
2023/08/08 01:35:07;;;;;;;3.93;1.57;;;;;;;18.96;100.00;96296.28;5072225;28;20071;-83
2023/08/08 01:37:39;;;;;;;3.87;1.50;;;;;;;18.85;100.00;96286.28;5062621;28;20031;-83
2023/08/08 01:40:06;;;;;;;4.03;1.60;;;;;;;18.59;100.00;96287.13;5053518;28;20081;-83
2023/08/08 01:42:33;;;;;;;5.00;1.80;;;;;;;18.60;100.00;96284.25;5070960;28;20501;-83
2023/08/08 01:44:59;;;;;;;2.60;1.50;;;;;;;18.66;100.00;96284.44;5052788;28;20475;-83
2023/08/08 01:47:27;;;;;;;3.13;1.60;;;;;;;18.39;100.00;96287.16;5062246;28;20092;-82
2023/08/08 01:49:53;;;;;;;3.37;1.50;;;;;;;18.34;100.00;96278.97;5062113;28;20120;-83
2023/08/08 01:52:18;;;;;;;4.73;1.80;;;;;;;18.62;100.00;96276.06;5050731;28;20040;-83
2023/08/08 01:54:44;;;;;;;3.40;1.90;;;;;;;18.56;100.00;96275.03;5057366;28;20032;-83
2023/08/08 01:57:11;;;;;;;2.93;1.57;;;;;;;18.56;100.00;96276.91;5050227;28;20078;-83
2023/08/08 01:59:40;;;;;;;4.33;1.90;;;;;;;19.11;100.00;96273.88;5050434;28;20036;-83
2023/08/08 02:02:06;;;;;;;2.67;1.50;;;;;;;18.85;100.00;96286.28;5062735;28;20531;-83
2023/08/08 02:04:32;;;;;;;3.47;1.57;;;;;;;18.91;100.00;96279.28;5046791;28;20021;-83
2023/08/08 02:06:57;;;;;;;5.27;1.87;;;;;;;18.79;100.00;96279.94;5062410;28;20016;-83
2023/08/08 02:09:24;;;;;;;3.33;1.57;;;;;;;18.94;100.00;96278.84;5067988;28;20056;-84
2023/08/08 02:11:50;;;;;;;4.87;2.40;;;;;;;18.70;100.00;96288.34;5052581;28;20074;-83
2023/08/08 02:14:16;;;;;;;5.20;1.70;;;;;;;18.58;100.00;96290.84;5057553;28;20450;-83
2023/08/08 02:16:42;;;;;;;5.93;1.90;;;;;;;18.58;100.00;96294.31;5071008;28;20441;-83
2023/08/08 02:19:16;;;;;;;2.80;1.37;;;;;;;18.83;100.00;96286.47;5052924;28;20025;-83
2023/08/08 02:21:42;;;;;;;2.87;1.30;;;;;;;19.01;100.00;96283.16;5062499;28;20074;-83
2023/08/08 02:24:08;;;;;;;2.90;1.50;;;;;;;18.93;100.00;96286.03;5049394;28;20028;-82
2023/08/08 02:26:34;;;;;;;7.13;2.00;;;;;;;18.84;100.00;96280.13;5057111;28;20029;-83
2023/08/08 02:29:01;;;;;;;5.43;1.67;;;;;;;18.91;100.00;96269.44;5056993;28;20021;-83
2023/08/08 02:31:27;;;;;;;2.37;1.40;;;;;;;18.92;100.00;96271.09;5067178;28;20029;-83
2023/08/08 02:33:52;;;;;;;5.10;1.77;;;;;;;18.77;100.00;96279.31;5055134;28;20402;-83
2023/08/08 02:36:18;;;;;;;4.23;1.83;;;;;;;18.93;100.00;96272.72;5058650;28;20029;-84
2023/08/08 02:38:45;;;;;;;7.70;2.00;;;;;;;18.98;100.00;96286.25;5047857;28;20031;-83
2023/08/08 02:41:10;;;;;;;3.93;1.63;;;;;;;19.02;100.00;96281.31;5052447;28;20029;-83
2023/08/08 02:43:36;;;;;;;6.03;1.77;;;;;;;19.28;100.00;96283.84;5063146;28;20059;-83
2023/08/08 02:46:02;;;;;;;4.20;1.73;;;;;;;19.07;100.00;96284.94;5054924;28;20048;-83
2023/08/08 02:48:29;;;;;;;4.60;1.57;;;;;;;19.02;100.00;96282.13;5061504;28;20025;-82
2023/08/08 02:50:55;;;;;;;2.90;1.70;;;;;;;19.30;100.00;96278.28;5061653;28;20450;-83
2023/08/08 02:53:25;;;;;;;5.07;2.00;;;;;;;19.19;100.00;96271.78;5065422;28;20031;-83
2023/08/08 02:55:51;;;;;;;5.03;1.43;;;;;;;19.27;100.00;96273.38;5052966;28;20025;-82
2023/08/08 02:58:16;;;;;;;3.37;1.70;;;;;;;19.53;100.00;96262.56;5073202;28;20500;-82
2023/08/08 03:00:43;;;;;;;3.93;1.93;;;;;;;19.15;100.00;96272.41;5048094;28;20024;-83
2023/08/08 03:03:12;;;;;;;4.03;1.90;;;;;;;18.99;100.00;96277.22;5070496;28;20513;-82
2023/08/08 03:05:39;;;;;;;5.03;1.60;;;;;;;19.45;100.00;96278.00;5054004;28;20021;-83
2023/08/08 03:08:05;;;;;;;4.33;1.80;;;;;;;19.45;100.00;96265.50;5058282;28;20031;-83
2023/08/08 03:10:31;;;;;;;3.33;1.63;;;;;;;19.41;100.00;96264.28;5070452;28;20044;-83
2023/08/08 03:12:57;;;;;;;4.57;1.93;;;;;;;20.00;100.00;96260.44;5060059;28;20036;-83
2023/08/08 03:15:23;;;;;;;5.60;1.63;;;;;;;19.88;100.00;96264.00;5055984;28;20478;-83
2023/08/08 03:17:49;;;;;;;5.50;1.70;;;;;;;19.59;100.00;96263.56;5056020;28;20849;-83
2023/08/08 03:20:15;;;;;;;3.50;1.47;;;;;;;19.65;100.00;96260.09;5073093;28;20649;-83
2023/08/08 03:22:40;;;;;;;5.10;2.90;;;;;;;19.52;100.00;96258.28;5056477;28;20025;-83
2023/08/08 03:25:08;;;;;;;4.20;1.37;;;;;;;19.32;100.00;96265.59;5050305;28;20017;-83
2023/08/08 03:27:34;;;;;;;3.23;1.60;;;;;;;19.28;100.00;96264.34;5071470;28;20099;-83
2023/08/08 03:30:01;;;;;;;4.40;2.00;;;;;;;19.74;100.00;96260.63;5047293;28;20357;-82
2023/08/08 03:32:32;;;;;;;4.00;1.73;;;;;;;19.65;100.00;96259.25;5057059;28;20492;-82
2023/08/08 03:34:57;;;;;;;3.53;1.50;;;;;;;19.37;100.00;96263.06;5056930;28;20059;-83
2023/08/08 03:37:23;;;;;;;4.63;1.47;;;;;;;19.48;100.00;96272.25;5069252;28;20021;-82
2023/08/08 03:39:49;;;;;;;7.33;1.63;;;;;;;19.73;100.00;96267.00;5054238;28;20025;-82
2023/08/08 03:42:15;;;;;;;5.07;1.80;;;;;;;19.70;100.00;96268.25;5056515;28;20040;-83
2023/08/08 03:44:40;;;;;;;4.27;1.97;;;;;;;19.26;100.00;96274.44;5052795;28;20021;-83
2023/08/08 03:47:07;;;;;;;3.73;1.60;;;;;;;19.25;100.00;96276.28;5068291;28;20471;-83
2023/08/08 03:49:32;;;;;;;3.07;1.60;;;;;;;19.45;100.00;96270.84;5049036;28;20028;-83
2023/08/08 03:51:59;;;;;;;2.60;1.47;;;;;;;19.24;100.00;96271.97;5074101;28;20123;-83
2023/08/08 03:54:26;;;;;;;2.40;1.70;;;;;;;19.60;100.00;96262.53;5056295;28;20029;-83
2023/08/08 03:56:51;;;;;;;3.57;1.80;;;;;;;19.37;100.00;96270.25;5072716;28;20031;-83
2023/08/08 03:59:19;;;;;;;3.07;1.47;;;;;;;19.30;100.00;96270.28;5055978;28;20028;-83
2023/08/08 04:01:45;;;;;;;4.20;2.00;;;;;;;19.70;100.00;96272.75;5072205;28;20039;-83
2023/08/08 04:04:10;;;;;;;4.60;1.50;;;;;;;19.75;100.00;96270.25;5071906;28;20025;-82
2023/08/08 04:06:36;;;;;;;3.67;1.60;;;;;;;19.70;100.00;96273.56;5079331;28;20036;-82
2023/08/08 04:09:01;;;;;;;2.70;1.50;;;;;;;19.60;100.00;96272.41;5054612;28;20028;-83
2023/08/08 04:11:27;;;;;;;5.00;1.70;;;;;;;19.48;100.00;96270.41;5060429;28;20033;-83
2023/08/08 04:13:52;;;;;;;4.87;2.10;;;;;;;19.45;100.00;96281.50;5054422;28;20494;-83
2023/08/08 04:16:18;;;;;;;2.47;1.40;;;;;;;19.47;100.00;96283.94;5066693;28;20078;-83
2023/08/08 04:18:44;;;;;;;2.90;1.40;;;;;;;19.53;100.00;96280.44;5070263;28;20077;-83
2023/08/08 04:21:09;;;;;;;3.67;1.90;;;;;;;19.54;100.00;96282.88;5067228;28;20020;-83
2023/08/08 04:23:35;;;;;;;5.07;1.70;;;;;;;19.27;100.00;96284.06;5055251;28;20028;-83
2023/08/08 04:26:00;;;;;;;4.87;1.83;;;;;;;19.59;100.00;96271.59;5054647;28;20028;-83
2023/08/08 04:28:26;;;;;;;4.33;1.80;;;;;;;19.18;100.00;96282.66;5055141;28;20127;-83
2023/08/08 04:30:51;;;;;;;4.60;2.07;;;;;;;19.03;100.00;96283.75;5071706;28;20028;-83
2023/08/08 04:33:17;;;;;;;5.67;1.90;;;;;;;18.72;100.00;96281.00;5055068;28;20078;-83
2023/08/08 04:35:42;;;;;;;3.00;1.50;;;;;;;18.98;100.00;96280.06;5071363;28;20074;-83
2023/08/08 04:38:08;;;;;;;3.60;1.80;;;;;;;19.20;100.00;96284.09;5054085;28;20020;-83
2023/08/08 04:40:49;;;;;;;5.63;1.87;;;;;;;19.02;100.00;96276.78;5071268;28;20398;-83
2023/08/08 04:43:15;;;;;;;4.63;1.83;;;;;;;18.87;100.00;96278.88;5057893;28;20036;-83
2023/08/08 04:45:51;;;;;;;3.20;1.33;;;;;;;18.64;100.00;96278.50;5071367;28;20021;-83
2023/08/08 04:48:17;;;;;;;3.83;1.83;;;;;;;18.98;100.00;96275.56;5071546;28;20433;-83
2023/08/08 04:50:47;;;;;;;5.37;1.83;;;;;;;18.80;100.00;96268.25;5071214;28;20028;-83
2023/08/08 04:53:13;;;;;;;3.37;1.67;;;;;;;19.06;100.00;96270.00;5042874;28;20035;-82
2023/08/08 04:55:39;;;;;;;3.63;1.87;;;;;;;18.87;100.00;96264.75;5049084;28;20029;-83
2023/08/08 04:58:04;;;;;;;4.97;1.87;;;;;;;19.02;100.00;96273.31;5051893;28;20473;-83
2023/08/08 05:00:30;;;;;;;2.93;1.53;;;;;;;19.18;100.00;96269.31;5057791;28;20490;-83
2023/08/08 05:02:56;;;;;;;3.47;1.70;;;;;;;19.64;100.00;96269.09;5058727;28;20203;-83
2023/08/08 05:05:21;;;;;;;3.37;1.60;;;;;;;19.53;100.00;96269.75;5070393;28;20027;-83
2023/08/08 05:07:47;;;;;;;5.17;1.93;;;;;;;19.36;100.00;96277.44;5070450;28;20028;-83
2023/08/08 05:10:12;;;;;;;4.43;2.13;;;;;;;19.77;100.00;96276.19;5053979;28;20024;-83
2023/08/08 05:12:38;;;;;;;3.73;1.97;;;;;;;20.29;100.00;96271.50;5057517;28;20035;-83
2023/08/08 05:15:04;;;;;;;3.57;1.90;;;;;;;20.25;100.00;96272.94;5050796;28;20032;-82
2023/08/08 05:17:31;;;;;;;5.60;2.50;;;;;;;20.11;100.00;96271.44;5070252;28;20558;-84
2023/08/08 05:19:57;;;;;;;4.93;1.73;;;;;;;20.40;100.00;96268.09;5051215;28;20036;-83
2023/08/08 05:22:22;;;;;;;2.90;1.50;;;;;;;20.00;100.00;96279.13;5071695;28;20078;-83
2023/08/08 05:24:48;;;;;;;6.70;1.87;;;;;;;20.14;100.00;96273.66;5071085;28;20027;-83
2023/08/08 05:27:13;;;;;;;3.23;1.60;;;;;;;19.67;100.00;96278.53;5052984;28;20033;-83
2023/08/08 05:29:41;;;;;;;7.37;1.90;;;;;;;19.77;100.00;96276.19;5044612;28;20033;-83
2023/08/08 05:32:07;;;;;;;4.37;1.43;;;;;;;20.00;100.00;96273.78;5063612;28;20560;-83
2023/08/08 05:34:34;;;;;;;4.47;1.53;;;;;;;19.26;100.00;96275.25;5056165;28;20467;-83
2023/08/08 05:37:00;;;;;;;4.00;1.40;;;;;;;19.90;100.00;96269.97;5057699;28;20035;-83
2023/08/08 05:39:30;;;;;;;4.93;1.80;;;;;;;19.54;100.00;96266.88;5067421;28;20028;-83
2023/08/08 05:41:56;;;;;;;3.63;1.60;;;;;;;19.84;100.00;96268.97;5067554;28;20063;-83
2023/08/08 05:44:21;;;;;;;3.17;1.50;;;;;;;20.16;100.00;96271.59;5052647;28;20024;-84
2023/08/08 05:46:47;;;;;;;3.37;1.37;;;;;;;20.01;100.00;96274.59;5073840;28;20024;-84
2023/08/08 05:49:12;;;;;;;2.77;1.50;;;;;;;20.18;100.00;96269.50;5068851;28;20036;-84
2023/08/08 05:51:38;;;;;;;3.43;1.40;;;;;;;19.94;100.00;96271.97;5068769;28;20039;-83
2023/08/08 05:54:03;;;;;;;4.57;1.57;;;;;;;20.12;100.00;96275.72;5058511;28;20017;-83
2023/08/08 05:56:36;;;;;;;3.60;1.43;;;;;;;19.80;100.00;96267.78;5064738;28;20035;-82
2023/08/08 05:59:02;;;;;;;4.30;1.73;;;;;;;20.28;100.00;96269.84;5070260;28;20103;-83
2023/08/08 06:01:27;;;;;;;2.43;1.33;;;;;;;20.26;100.00;96266.59;5059114;28;20028;-82
2023/08/08 06:03:55;;;;;;;3.43;1.40;;;;;;;20.45;100.00;96265.56;5074204;28;20643;-83
2023/08/08 06:06:21;;;;;;;3.33;1.17;;;;;;;20.65;100.00;96267.25;5073811;28;20070;-87
2023/08/08 06:08:46;;;;;;;4.30;1.60;;;;;;;20.60;100.00;96267.13;5073200;28;20116;-84
2023/08/08 06:11:23;;;;;;;3.20;1.30;;;;;;;21.38;100.00;96259.19;5072872;28;20402;-84
2023/08/08 06:13:48;;;;;;;2.40;1.20;;;;;;;22.15;100.00;96266.53;5058409;28;20398;-83
2023/08/08 06:16:21;;;;;;;2.17;1.13;;;;;;;21.62;100.00;96265.44;5068769;28;20028;-84
2023/08/08 06:18:46;;;;;;;2.60;1.42;;;;;;;22.01;100.00;96265.91;5058210;28;20051;-83
2023/08/08 06:21:12;;;;;;;3.80;1.23;;;;;;;21.72;100.00;96269.44;5058901;28;20574;-84
2023/08/08 06:23:37;;;;;;;5.25;1.70;;;;;;;22.80;92.64;96270.94;5054251;28;20029;-84
2023/08/08 06:26:03;;;;;;;9.38;1.65;;;;;;;22.05;97.57;96263.56;5073326;28;20074;-84
2023/08/08 06:28:30;;;;;;;2.65;1.20;;;;;;;23.13;91.72;96264.13;5053747;28;20032;-84
2023/08/08 06:30:56;;;;;;;3.45;1.48;;;;;;;23.34;92.83;96265.34;5052146;28;20036;-84
2023/08/08 06:33:32;;;;;;;3.05;1.30;;;;;;;22.68;95.03;96262.91;5071994;28;20024;-84
2023/08/08 06:35:58;;;;;;;3.95;1.25;;;;;;;22.38;96.28;96263.06;5067108;28;20032;-84
2023/08/08 06:38:23;;;;;;;2.10;1.20;;;;;;;22.52;91.47;96261.75;5075302;28;20032;-84
2023/08/08 06:40:56;;;;;;;4.88;1.65;;;;;;;23.10;91.70;96264.63;5057225;28;20073;-84
2023/08/08 06:43:21;;;;;;;3.22;1.30;;;;;;;23.68;87.71;96266.31;5074285;28;20033;-84
2023/08/08 06:45:47;;;;;;;1.92;1.25;;;;;;;23.42;84.35;96263.09;5073952;28;20475;-84
2023/08/08 06:48:12;;;;;;;2.33;1.25;;;;;;;24.08;82.24;96249.22;5049374;28;20056;-83
2023/08/08 06:50:38;;;;;;;5.78;1.52;;;;;;;24.39;80.36;96250.53;5071416;28;20025;-83
2023/08/08 06:53:09;;;;;;;3.20;1.60;;;;;;;24.84;77.89;96257.63;5053321;28;20627;-83
2023/08/08 06:55:34;;;;;;;4.00;1.20;;;;;;;24.86;75.22;96252.84;5066927;28;20078;-83
2023/08/08 06:58:00;;;;;;;2.90;1.40;;;;;;;25.37;74.16;96251.59;5057129;28;20474;-83
2023/08/08 07:00:27;;;;;;;4.50;1.63;;;;;;;25.04;72.59;96249.81;5073781;28;20025;-83
2023/08/08 07:02:57;;;;;;;2.97;1.10;;;;;;;25.38;72.95;96249.69;5054266;28;20021;-84
2023/08/08 07:05:23;;;;;;;3.85;1.70;;;;;;;25.44;70.41;96240.63;5062647;28;20039;-83
2023/08/08 07:07:52;;;;;;;4.35;1.40;;;;;;;25.43;67.19;96233.63;5073168;28;20020;-84
2023/08/08 07:10:18;;;;;;;6.75;1.60;;;;;;;25.66;68.37;96242.47;5064396;28;20024;-84
2023/08/08 07:12:48;;;;;;;2.80;1.27;;;;;;;26.30;68.49;96235.22;5073071;28;20032;-84
2023/08/08 07:15:14;;;;;;;4.32;2.17;;;;;;;27.35;63.81;96242.53;5067984;28;21737;-85
2023/08/08 07:17:39;;;;;;;2.38;1.23;;;;;;;27.04;63.34;96250.50;5075348;28;20035;-85
2023/08/08 07:20:06;;;;;;;5.40;1.85;;;;;;;26.93;65.03;96245.34;5072741;28;20055;-85
2023/08/08 07:22:32;;;;;;;3.33;1.27;;;;;;;27.76;61.73;96244.50;5046469;28;20085;-84
2023/08/08 07:24:58;;;;;;;4.47;1.60;;;;;;;27.33;62.09;96247.41;5068858;28;20569;-85
2023/08/08 07:27:24;;;;;;;2.65;1.45;;;;;;;27.62;59.68;96236.94;5053872;28;20501;-85
2023/08/08 07:29:56;;;;;;;3.08;1.25;;;;;;;27.53;57.63;96238.53;5058703;28;20040;-85
2023/08/08 07:32:22;;;;;;;3.20;1.40;;;;;;;27.74;57.81;96240.19;5054791;28;20078;-85
2023/08/08 07:34:47;;;;;;;3.88;1.50;;;;;;;27.20;58.75;96235.22;5050891;28;20059;-85
2023/08/08 07:37:14;;;;;;;3.13;1.52;;;;;;;29.22;54.83;96230.31;5053669;28;20032;-84
2023/08/08 07:39:40;;;;;;;2.33;1.33;;;;;;;29.62;52.47;96231.22;5070808;28;20024;-85
2023/08/08 07:42:05;;;;;;;3.17;1.10;;;;;;;28.57;53.07;96231.03;5051898;28;20013;-85
2023/08/08 07:44:34;;;;;;;2.85;1.25;;;;;;;29.00;51.32;96238.78;5063698;28;20024;-85
2023/08/08 07:47:00;;;;;;;2.60;1.05;;;;;;;27.08;55.76;96239.19;5074380;28;20073;-84
2023/08/08 07:49:25;;;;;;;3.10;1.23;;;;;;;27.48;55.71;96247.44;5053437;28;20021;-84
2023/08/08 07:51:51;;;;;;;2.33;1.10;;;;;;;28.06;54.90;96230.25;5073269;28;20089;-84
2023/08/08 07:54:22;;;;;;;2.88;1.02;;;;;;;28.17;55.25;96234.59;5072989;28;20102;-83
2023/08/08 07:56:48;;;;;;;3.00;1.20;;;;;;;28.73;52.25;96226.38;5069366;28;20048;-83
2023/08/08 07:59:13;;;;;;;2.38;0.90;;;;;;;29.06;51.16;96233.06;5054658;28;20031;-83
2023/08/08 08:01:39;;;;;;;2.08;0.95;;;;;;;27.77;52.07;96233.47;5061537;28;20021;-84
2023/08/08 08:04:05;;;;;;;3.00;1.30;;;;;;;27.42;55.27;96237.69;5042624;28;20059;-85
2023/08/08 08:06:31;;;;;;;2.45;0.95;;;;;;;28.73;52.20;96218.25;5062060;28;20032;-84
2023/08/08 08:08:56;;;;;;;4.63;1.50;;;;;;;28.54;50.76;96218.06;5072348;28;20028;-85
2023/08/08 08:11:22;;;;;;;3.05;1.08;;;;;;;28.20;51.99;96228.59;5054666;28;20028;-84
2023/08/08 08:13:47;;;;;;;2.95;1.40;;;;;;;29.56;49.35;96220.34;5050852;28;20466;-84
2023/08/08 08:16:13;;;;;;;2.63;1.30;;;;;;;30.08;48.37;96220.84;5072497;28;20024;-84
2023/08/08 08:18:39;;;;;;;2.20;1.20;;;;;;;30.91;46.90;96227.94;5052738;28;20431;-85
2023/08/08 08:21:04;;;;;;;5.15;1.65;;;;;;;29.61;48.49;96222.25;5050189;28;20033;-84
2023/08/08 08:23:33;;;;;;;2.05;1.00;;;;;;;30.10;47.60;96224.06;5055831;28;20508;-84
2023/08/08 08:25:59;;;;;;;3.10;1.02;;;;;;;28.69;48.69;96222.63;5072730;28;20023;-84
2023/08/08 08:28:26;;;;;;;2.70;1.30;;;;;;;29.86;47.77;96212.34;5071847;28;20020;-84
2023/08/08 08:31:10;;;;;;;3.15;1.02;;;;;;;30.08;46.87;96212.72;5072413;28;20391;-84
2023/08/08 08:33:36;;;;;;;3.78;1.20;;;;;;;28.78;47.98;96226.38;5070420;28;20035;-84
2023/08/08 08:36:01;;;;;;;4.13;1.42;;;;;;;28.23;48.61;96224.56;5058907;28;20016;-84
2023/08/08 08:38:29;;;;;;;2.53;1.20;;;;;;;29.24;47.51;96218.13;5056290;28;20028;-83
2023/08/08 08:40:56;;;;;;;3.65;1.55;;;;;;;29.20;45.75;96222.44;5072247;28;20024;-83
2023/08/08 08:43:22;;;;;;;3.33;1.75;;;;;;;28.45;47.58;96227.00;5055389;28;20442;-82
2023/08/08 08:45:51;;;;;;;7.28;1.40;;;;;;;28.71;47.55;96225.88;5057940;28;20044;-83
2023/08/08 08:48:19;;;;;;;2.72;1.20;;;;;;;28.19;47.45;96222.38;5053400;28;20135;-82
2023/08/08 08:50:47;;;;;;;3.28;1.27;;;;;;;28.62;48.31;96211.28;5052710;28;20700;-82
2023/08/08 08:53:13;;;;;;;3.25;1.05;;;;;;;28.64;47.99;96214.53;5045604;28;20056;-83
2023/08/08 08:55:39;;;;;;;2.63;1.20;;;;;;;28.67;49.32;96216.66;5056837;28;20021;-82
2023/08/08 08:58:05;;;;;;;2.83;1.10;;;;;;;28.16;52.33;96230.22;5054813;28;20024;-82
2023/08/08 09:00:32;;;;;;;2.67;1.15;;;;;;;28.15;48.85;96220.50;5066187;28;20421;-83
2023/08/08 09:02:58;;;;;;;4.05;1.23;;;;;;;27.45;51.52;96223.66;5071594;28;20356;-82
2023/08/08 09:05:25;;;;;;;2.22;1.13;;;;;;;27.10;52.70;96231.63;5069147;28;20019;-83
2023/08/08 09:07:52;;;;;;;3.83;1.15;;;;;;;27.18;53.60;96226.56;5051872;28;20024;-83
2023/08/08 09:10:18;;;;;;;2.72;1.05;;;;;;;26.99;52.20;96228.88;5070327;28;20107;-82
2023/08/08 09:12:45;;;;;;;4.45;1.15;;;;;;;26.80;52.64;96227.72;5071795;28;20035;-82
2023/08/08 09:15:12;;;;;;;3.78;1.20;;;;;;;27.56;51.11;96218.28;5062315;28;20034;-82
2023/08/08 09:17:45;;;;;;;5.07;1.65;;;;;;;28.03;50.99;96204.56;5072037;28;20378;-82
2023/08/08 09:20:12;;;;;;;;;;;;;;;28.26;50.42;96213.19;5071288;28;20016;-83
2023/08/08 09:22:38;;;;;;;2.72;1.20;;;;;;;28.87;49.38;96213.06;5067176;28;19909;-82
2023/08/08 09:25:05;;;;;;;5.68;1.40;;;;;;;28.67;50.35;96211.25;5060713;28;20016;-82
2023/08/08 09:27:31;;;;;;;2.97;1.15;;;;;;;29.62;48.14;96209.53;5068876;28;20017;-82
2023/08/08 09:29:56;;;;;;;3.47;1.17;;;;;;;27.98;50.57;96211.88;5070236;28;20016;-83
2023/08/08 09:32:22;;;;;;;2.30;1.00;;;;;;;28.74;50.46;96214.50;5048103;28;20024;-83
2023/08/08 09:34:47;;;;;;;2.95;1.35;;;;;;;28.85;48.85;96209.84;5060107;28;20718;-83
2023/08/08 09:37:14;;;;;;;2.95;1.20;;;;;;;29.95;48.96;96199.81;5047796;28;20029;-83
2023/08/08 09:39:40;;;;;;;4.53;1.50;;;;;;;28.58;50.00;96197.47;5072445;28;20028;-82
2023/08/08 09:42:08;;;;;;;2.53;0.95;;;;;;;28.00;49.66;96204.28;5072134;28;20025;-82
2023/08/08 09:44:35;;;;;;;3.47;1.70;;;;;;;28.52;48.25;96208.59;5065176;28;20021;-83
2023/08/08 09:47:01;;;;;;;6.13;1.40;;;;;;;28.73;47.71;96207.44;5070084;28;20017;-81
2023/08/08 09:49:27;;;;;;;3.72;1.52;;;;;;;27.51;49.32;96202.88;5061992;28;20111;-82
2023/08/08 09:51:52;;;;;;;2.92;1.38;;;;;;;27.46;50.76;96200.16;5053121;28;20111;-82
2023/08/08 09:54:19;;;;;;;3.20;1.63;;;;;;;27.81;51.87;96199.44;5051348;28;20611;-82
2023/08/08 09:56:45;;;;;;;4.07;1.38;;;;;;;27.09;49.02;96209.22;5053835;28;20111;-82
2023/08/08 09:59:13;;;;;;;4.25;1.45;;;;;;;27.03;49.61;96202.19;5063735;28;20120;-82
2023/08/08 10:01:41;;;;;;;2.75;1.40;;;;;;;26.37;52.17;96205.34;5072821;28;20061;-83
2023/08/08 10:04:08;;;;;;;2.53;1.13;;;;;;;27.13;49.40;96209.50;5054309;28;20119;-82
2023/08/08 10:06:36;;;;;;;3.67;1.38;;;;;;;27.43;48.79;96206.94;5072722;28;20378;-82
2023/08/08 10:09:03;;;;;;;4.93;1.27;;;;;;;27.83;49.13;96196.44;5050953;28;20059;-82
2023/08/08 10:11:31;;;;;;;3.80;1.25;;;;;;;28.13;47.98;96203.75;5069772;28;20467;-82
2023/08/08 10:13:57;;;;;;;4.05;1.40;;;;;;;28.73;46.67;96193.91;5067040;28;20575;-82
2023/08/08 10:16:23;;;;;;;3.55;1.30;;;;;;;27.77;46.68;96195.66;5053739;28;20021;-82
2023/08/08 10:19:00;;;;;;;3.95;1.20;;;;;;;28.56;45.37;96182.59;5070692;28;20067;-82
2023/08/08 10:21:28;;;;;;;3.83;1.48;;;;;;;29.24;44.91;96185.63;5050875;28;20048;-82
2023/08/08 10:24:10;;;;;;;3.67;1.23;;;;;;;28.81;44.98;96182.53;5065870;28;20024;-82
2023/08/08 10:26:57;;;;;;;4.63;1.20;;;;;;;27.35;45.87;96185.81;5065579;28;20055;-82
2023/08/08 10:29:25;;;;;;;3.85;1.73;;;;;;;27.93;46.10;96174.81;5070855;28;20017;-85
2023/08/08 10:32:08;;;;;;;2.53;1.17;;;;;;;29.54;44.13;96172.94;5072813;28;20489;-83
2023/08/08 10:34:38;;;;;;;;;;;;;;;28.77;43.34;96177.94;5070141;28;20060;-82
2023/08/08 10:37:09;;;;;;;2.38;1.20;;;;;;;29.64;42.34;96170.19;5069122;28;19913;-81
2023/08/08 10:39:34;;;;;;;3.35;1.63;;;;;;;30.00;40.77;96167.19;5050900;28;20016;-81
2023/08/08 10:42:04;;;;;;;5.68;1.40;;;;;;;30.60;40.40;96167.72;5054109;28;20028;-82
2023/08/08 10:44:31;;;;;;;3.15;1.13;;;;;;;30.73;39.94;96171.66;5063536;28;20547;-83
2023/08/08 10:47:00;;;;;;;2.60;1.13;;;;;;;30.06;39.80;96176.91;5057867;28;20028;-85
2023/08/08 10:49:26;;;;;;;3.28;1.15;;;;;;;30.85;40.28;96169.38;5074473;28;20017;-83
2023/08/08 10:51:52;;;;;;;3.38;1.30;;;;;;;31.63;40.08;96167.25;5075759;28;20027;-84
2023/08/08 10:54:30;;;;;;;3.05;1.10;;;;;;;31.25;40.50;96164.47;5056895;28;20028;-84
2023/08/08 10:56:59;;;;;;;3.22;1.30;;;;;;;31.95;38.29;96162.94;5057695;28;20028;-86
2023/08/08 10:59:30;;;;;;;3.50;1.30;;;;;;;29.47;41.39;96172.47;5071653;28;20017;-84
2023/08/08 11:01:56;;;;;;;3.15;1.55;;;;;;;29.54;41.36;96175.66;5053385;28;20024;-84
2023/08/08 11:04:25;;;;;;;4.43;1.38;;;;;;;29.14;41.26;96169.41;5070449;28;20020;-84
2023/08/08 11:06:54;;;;;;;9.95;7.35;;;;;;;28.86;41.75;96168.97;5061365;28;20802;-85
2023/08/08 11:09:20;;;;;;;3.10;1.02;;;;;;;30.50;41.94;96168.63;5072049;28;20135;-85
2023/08/08 11:11:46;;;;;;;2.85;1.45;;;;;;;30.60;39.35;96159.56;5072747;28;20107;-85
2023/08/08 11:14:16;;;;;;;2.92;1.00;;;;;;;29.70;40.28;96160.13;5057551;28;20096;-85
2023/08/08 11:16:43;;;;;;;3.05;1.25;;;;;;;29.25;41.96;96164.75;5057181;28;20021;-85
2023/08/08 11:19:09;;;;;;;2.88;1.40;;;;;;;29.12;40.16;96160.75;5074357;28;20016;-85
2023/08/08 11:21:40;;;;;;;2.35;1.10;;;;;;;29.18;39.63;96154.22;5063846;28;20051;-85
2023/08/08 11:24:07;;;;;;;2.08;0.95;;;;;;;29.84;39.77;96153.75;5068704;28;20021;-85
2023/08/08 11:26:37;;;;;;;2.22;1.25;;;;;;;30.44;40.09;96155.41;5057405;28;20027;-85
2023/08/08 11:29:05;;;;;;;2.83;1.15;;;;;;;30.14;39.96;96154.59;5073968;28;20034;-86